createdAt,value
2022-08-28T00:02:26.616Z,100731.53
2022-08-28T00:04:55.355Z,100739.44
2022-08-28T00:07:24.159Z,100737.84
2022-08-28T00:09:54.160Z,100735.19
2022-08-28T00:12:22.724Z,100744.16
2022-08-28T00:14:51.341Z,100734.41
2022-08-28T00:17:20.061Z,100737.31
2022-08-28T00:19:48.609Z,100734.66
2022-08-28T00:22:17.259Z,100742.31
2022-08-28T00:24:45.927Z,100729.94
2022-08-28T00:27:33.379Z,100728.34
2022-08-28T00:30:02.087Z,100725.16
2022-08-28T00:32:31.962Z,100727.56
2022-08-28T00:35:01.879Z,100733.88
2022-08-28T00:37:31.217Z,100735.72
2022-08-28T00:39:59.877Z,100735.72
2022-08-28T00:42:29.910Z,100733.06
2022-08-28T00:44:58.520Z,100737.56
2022-08-28T00:47:28.452Z,100732.53
2022-08-28T00:49:58.152Z,100739.41
2022-08-28T00:52:27.105Z,100732.53
2022-08-28T00:54:59.276Z,100733.25
2022-08-28T00:57:33.190Z,100727.50
2022-08-28T01:00:02.172Z,100730.66
2022-08-28T01:02:32.070Z,100735.94
2022-08-28T01:05:00.480Z,100730.59
2022-08-28T01:07:29.367Z,100735.59
2022-08-28T01:09:59.517Z,100730.09
2022-08-28T01:12:32.829Z,100725.34
2022-08-28T01:15:04.975Z,100728.00
2022-08-28T01:17:36.313Z,100723.53
2022-08-28T01:20:14.546Z,100723.53
2022-08-28T01:22:51.828Z,100728.00
2022-08-28T01:25:24.348Z,100731.41
2022-08-28T01:27:52.997Z,100724.56
2022-08-28T01:30:23.655Z,100727.19
2022-08-28T01:32:54.365Z,100728.78
2022-08-28T01:35:27.079Z,100726.16
2022-08-28T01:37:57.050Z,100722.72
2022-08-28T01:40:30.421Z,100728.00
2022-08-28T01:43:08.572Z,100720.34
2022-08-28T01:45:38.205Z,100727.72
2022-08-28T01:48:07.761Z,100724.28
2022-08-28T01:50:37.074Z,100727.72
2022-08-28T01:53:06.693Z,100731.94
2022-08-28T01:55:42.576Z,100730.34
2022-08-28T01:58:13.115Z,100727.72
2022-08-28T02:00:42.143Z,100731.38
2022-08-28T02:03:12.956Z,100735.06
2022-08-28T02:05:41.757Z,100737.94
2022-08-28T02:08:10.875Z,100731.88
2022-08-28T02:10:40.080Z,100731.53
2022-08-28T02:13:10.267Z,100728.66
2022-08-28T02:15:40.130Z,100732.88
2022-08-28T02:18:09.063Z,100731.03
2022-08-28T02:20:37.641Z,100728.06
2022-08-28T02:23:07.269Z,100731.25
2022-08-28T02:25:35.889Z,100734.44
2022-08-28T02:28:04.765Z,100734.44
2022-08-28T02:30:34.949Z,100743.13
2022-08-28T02:33:03.973Z,100735.22
2022-08-28T02:35:32.469Z,100745.97
2022-08-28T02:38:01.151Z,100738.88
2022-08-28T02:40:30.017Z,100739.16
2022-08-28T02:42:58.838Z,100743.63
2022-08-28T02:45:27.428Z,100749.69
2022-08-28T02:47:57.494Z,100755.22
2022-08-28T02:50:26.224Z,100754.97
2022-08-28T02:52:55.100Z,100760.22
2022-08-28T02:55:24.797Z,100759.44
2022-08-28T02:57:54.772Z,100757.59
2022-08-28T03:00:25.725Z,100753.38
2022-08-28T03:02:54.774Z,100762.84
2022-08-28T03:05:26.493Z,100762.06
2022-08-28T03:07:55.977Z,100758.63
2022-08-28T03:10:24.818Z,100768.91
2022-08-28T03:12:54.431Z,100763.09
2022-08-28T03:15:23.022Z,100766.78
2022-08-28T03:17:51.645Z,100769.69
2022-08-28T03:20:20.352Z,100775.75
2022-08-28T03:23:07.464Z,100772.84
2022-08-28T03:25:36.037Z,100773.34
2022-08-28T03:28:05.047Z,100772.31
2022-08-28T03:30:33.402Z,100781.19
2022-08-28T03:33:02.252Z,100780.38
2022-08-28T03:35:30.968Z,100778.03
2022-08-28T03:38:01.197Z,100784.09
2022-08-28T03:40:29.906Z,100785.72
2022-08-28T03:42:58.637Z,100784.69
2022-08-28T03:45:27.951Z,100782.28
2022-08-28T03:47:56.664Z,100782.53
2022-08-28T03:50:26.449Z,100780.47
2022-08-28T03:52:57.594Z,100788.13
2022-08-28T03:55:27.587Z,100785.47
2022-08-28T03:57:56.538Z,100788.91
2022-08-28T04:00:25.285Z,100791.78
2022-08-28T04:02:53.905Z,100790.16
2022-08-28T04:05:22.514Z,100791.78
2022-08-28T04:07:53.881Z,100794.16
2022-08-28T04:10:22.486Z,100801.28
2022-08-28T04:12:53.880Z,100793.91
2022-08-28T04:15:22.731Z,100789.44
2022-08-28T04:17:51.356Z,100795.50
2022-08-28T04:20:21.198Z,100773.66
2022-08-28T04:22:50.047Z,100781.28
2022-08-28T04:25:24.583Z,100779.72
2022-08-28T04:27:55.355Z,100782.34
2022-08-28T04:30:23.909Z,100784.97
2022-08-28T04:32:52.422Z,100782.34
2022-08-28T04:35:21.106Z,100784.19
2022-08-28T04:37:50.244Z,100775.50
2022-08-28T04:40:19.451Z,100773.81
2022-08-28T04:42:48.119Z,100781.47
2022-08-28T04:45:18.577Z,100775.50
2022-08-28T04:47:47.165Z,100787.34
2022-08-28T04:50:15.758Z,100782.09
2022-08-28T04:52:44.355Z,100783.69
2022-08-28T04:55:13.395Z,100774.72
2022-08-28T04:57:42.743Z,100791.09
2022-08-28T05:00:12.647Z,100790.03
2022-08-28T05:02:42.589Z,100795.06
2022-08-28T05:05:11.963Z,100795.84
2022-08-28T05:07:40.518Z,100795.06
2022-08-28T05:10:21.986Z,100795.84
2022-08-28T05:12:50.803Z,100802.72
2022-08-28T05:15:19.574Z,100794.81
2022-08-28T05:17:50.131Z,100799.28
2022-08-28T05:20:18.801Z,100799.81
2022-08-28T05:22:47.896Z,100797.19
2022-08-28T05:25:16.587Z,100805.63
2022-08-28T05:27:45.138Z,100805.63
2022-08-28T05:30:14.698Z,100807.22
2022-08-28T05:32:44.492Z,100809.63
2022-08-28T05:35:14.744Z,100810.44
2022-08-28T05:37:43.320Z,100813.06
2022-08-28T05:40:12.525Z,100811.47
2022-08-28T05:42:41.153Z,100808.59
2022-08-28T05:45:10.724Z,100813.59
2022-08-28T05:47:39.304Z,100814.16
2022-08-28T05:50:09.283Z,100817.31
2022-08-28T05:52:39.706Z,100818.66
2022-08-28T05:55:09.251Z,100811.31
2022-08-28T05:57:38.586Z,100812.88
2022-08-28T06:00:10.439Z,100813.44
2022-08-28T06:02:39.200Z,100815.81
2022-08-28T06:05:08.495Z,100813.97
2022-08-28T06:07:39.841Z,100814.78
2022-08-28T06:10:10.811Z,100817.16
2022-08-28T06:12:39.641Z,100819.53
2022-08-28T06:15:09.781Z,100817.44
2022-08-28T06:17:38.568Z,100822.72
2022-08-28T06:20:08.119Z,100821.91
2022-08-28T06:22:36.839Z,100822.72
2022-08-28T06:25:09.526Z,100823.50
2022-08-28T06:27:39.461Z,100826.94
2022-08-28T06:30:09.469Z,100833.00
2022-08-28T06:32:38.052Z,100836.97
2022-08-28T06:35:07.304Z,100846.47
2022-08-28T06:37:35.998Z,100842.78
2022-08-28T06:40:06.928Z,100837.00
2022-08-28T06:42:35.588Z,100838.59
2022-08-28T06:45:04.535Z,100843.88
2022-08-28T06:47:32.849Z,100847.78
2022-08-28T06:50:01.457Z,100845.69
2022-08-28T06:52:32.113Z,100840.69
2022-08-28T06:55:00.721Z,100835.41
2022-08-28T06:57:31.845Z,100845.72
2022-08-28T07:00:01.016Z,100842.81
2022-08-28T07:02:29.734Z,100844.41
2022-08-28T07:04:58.427Z,100846.25
2022-08-28T07:07:32.457Z,100857.59
2022-08-28T07:10:01.450Z,100851.81
2022-08-28T07:12:31.456Z,100850.50
2022-08-28T07:15:00.129Z,100846.59
2022-08-28T07:17:32.269Z,100852.44
2022-08-28T07:20:01.068Z,100856.09
2022-08-28T07:22:29.855Z,100858.50
2022-08-28T07:24:59.116Z,100859.03
2022-08-28T07:27:27.753Z,100850.88
2022-08-28T07:29:58.596Z,100854.06
2022-08-28T07:32:27.508Z,100847.72
2022-08-28T07:34:57.239Z,100856.19
2022-08-28T07:37:27.357Z,100847.22
2022-08-28T07:39:55.985Z,100852.25
2022-08-28T07:42:41.940Z,100845.94
2022-08-28T07:45:12.498Z,100849.59
2022-08-28T07:47:41.080Z,100854.66
2022-08-28T07:50:10.293Z,100854.41
2022-08-28T07:52:38.829Z,100849.91
2022-08-28T07:55:08.874Z,100851.50
2022-08-28T07:57:37.358Z,100845.44
2022-08-28T08:00:07.505Z,100840.97
2022-08-28T08:02:42.219Z,100848.63
2022-08-28T08:05:12.117Z,100853.88
2022-08-28T08:07:43.895Z,100850.47
2022-08-28T08:10:15.112Z,100848.34
2022-08-28T08:12:49.072Z,100854.69
2022-08-28T08:15:21.182Z,100852.03
2022-08-28T08:17:51.986Z,100855.72
2022-08-28T08:20:20.745Z,100857.31
2022-08-28T08:22:49.479Z,100860.75
2022-08-28T08:25:18.116Z,100859.97
2022-08-28T08:27:48.302Z,100861.53
2022-08-28T08:30:17.063Z,100851.00
2022-08-28T08:32:45.682Z,100858.91
2022-08-28T08:35:15.635Z,100852.84
2022-08-28T08:37:44.923Z,100851.00
2022-08-28T08:40:19.351Z,100852.59
2022-08-28T08:42:55.688Z,100849.16
2022-08-28T08:45:26.824Z,100851.78
2022-08-28T08:47:57.279Z,100845.47
2022-08-28T08:50:29.453Z,100841.25
2022-08-28T08:53:20.235Z,100851.53
2022-08-28T08:55:51.442Z,100841.25
2022-08-28T08:58:26.642Z,100850.75
2022-08-28T09:01:03.144Z,100848.91
2022-08-28T09:03:47.192Z,100843.63
2022-08-28T09:06:24.620Z,100848.09
2022-08-28T09:08:59.206Z,100849.94
2022-08-28T09:11:42.493Z,100842.56
2022-08-28T09:14:20.536Z,100841.00
2022-08-28T09:16:49.697Z,100842.03
2022-08-28T09:19:20.156Z,100836.19
2022-08-28T09:21:52.011Z,100842.81
2022-08-28T09:24:24.008Z,100847.56
2022-08-28T09:26:58.382Z,100845.72
2022-08-28T09:29:33.116Z,100847.56
2022-08-28T09:32:19.179Z,100845.72
2022-08-28T09:35:02.943Z,100842.28
2022-08-28T09:37:37.847Z,100839.66
2022-08-28T09:40:24.065Z,100845.72
2022-08-28T09:43:20.548Z,100845.72
2022-08-28T09:45:55.958Z,100837.00
2022-08-28T09:48:25.907Z,100843.09
2022-08-28T09:51:03.398Z,100835.16
2022-08-28T09:53:36.582Z,100834.13
2022-08-28T09:56:17.196Z,100837.56
2022-08-28T09:58:48.251Z,100825.16
2022-08-28T10:01:37.953Z,100829.38
2022-08-28T10:04:24.793Z,100826.22
2022-08-28T10:06:57.636Z,100824.38
2022-08-28T10:09:43.646Z,100820.69
2022-08-28T10:12:28.838Z,100820.94
2022-08-28T10:15:06.041Z,100822.53
2022-08-28T10:17:46.093Z,100820.69
2022-08-28T10:20:21.151Z,100825.97
2022-08-28T10:23:02.172Z,100818.84
2022-08-28T10:25:43.094Z,100822.28
2022-08-28T10:28:25.481Z,100816.19
2022-08-28T10:31:01.965Z,100810.94
2022-08-28T10:33:47.097Z,100807.25
2022-08-28T10:36:33.762Z,100811.72
2022-08-28T10:39:17.045Z,100811.72
2022-08-28T10:41:52.042Z,100802.22
2022-08-28T10:44:31.403Z,100801.16
2022-08-28T10:47:00.494Z,100798.53
2022-08-28T10:49:35.700Z,100798.28
2022-08-28T10:52:08.835Z,100794.84
2022-08-28T10:54:42.687Z,100793.00
2022-08-28T10:57:26.813Z,100801.44
2022-08-28T10:59:55.498Z,100789.56
2022-08-28T11:02:26.901Z,100790.38
2022-08-28T11:04:58.935Z,100787.72
2022-08-28T11:07:33.512Z,100793.00
2022-08-28T11:10:21.289Z,100783.00
2022-08-28T11:12:53.590Z,100780.59
2022-08-28T11:15:42.187Z,100779.31
2022-08-28T11:18:46.940Z,100775.88
2022-08-28T11:21:22.729Z,100776.91
2022-08-28T11:23:58.475Z,100776.38
2022-08-28T11:26:41.056Z,100772.94
2022-08-28T11:29:11.107Z,100770.31
2022-08-28T11:31:42.340Z,100774.53
2022-08-28T11:35:00.158Z,100779.56
2022-08-28T11:37:39.408Z,100765.84
2022-08-28T11:40:43.379Z,100771.66
2022-08-28T11:43:35.603Z,100766.63
2022-08-28T11:46:24.478Z,100771.09
2022-08-28T11:48:54.218Z,100767.91
2022-08-28T11:51:55.418Z,100764.75
2022-08-28T11:54:46.589Z,100755.53
2022-08-28T11:57:19.297Z,100758.19
2022-08-28T12:00:08.045Z,100756.06
2022-08-28T12:02:46.810Z,100762.63
2022-08-28T12:05:30.202Z,100754.66
2022-08-28T12:08:00.636Z,100753.34
2022-08-28T12:10:47.659Z,100753.34
2022-08-28T12:13:43.154Z,100755.97
2022-08-28T12:16:12.883Z,100747.00
2022-08-28T12:19:02.529Z,100743.34
2022-08-28T12:21:36.646Z,100741.50
2022-08-28T12:24:09.299Z,100741.25
2022-08-28T12:26:40.063Z,100737.56
2022-08-28T12:29:19.182Z,100739.41
2022-08-28T12:32:15.126Z,100726.78
2022-08-28T12:34:50.198Z,100730.19
2022-08-28T12:37:39.578Z,100730.19
2022-08-28T12:40:22.792Z,100727.56
2022-08-28T12:42:55.238Z,100726.50
2022-08-28T12:45:29.211Z,100729.16
2022-08-28T12:48:00.285Z,100730.19
2022-08-28T12:50:36.739Z,100726.50
2022-08-28T12:53:06.506Z,100723.88
2022-08-28T12:55:34.965Z,100728.09
2022-08-28T12:58:03.241Z,100727.31
2022-08-28T13:00:35.529Z,100725.72
2022-08-28T13:03:08.548Z,100722.81
2022-08-28T13:05:41.301Z,100723.63
2022-08-28T13:08:11.420Z,100726.25
2022-08-28T13:10:40.981Z,100727.84
2022-08-28T13:13:11.090Z,100724.41
2022-08-28T13:15:43.815Z,100731.28
2022-08-28T13:18:12.717Z,100726.25
2022-08-28T13:20:42.412Z,100724.41
2022-08-28T13:23:28.916Z,100723.63
2022-08-28T13:26:04.170Z,100725.47
2022-08-28T13:28:37.065Z,100723.63
2022-08-28T13:31:05.383Z,100726.25
2022-08-28T13:33:33.852Z,100722.81
2022-08-28T13:36:20.897Z,100724.41
2022-08-28T13:38:49.198Z,100727.03
2022-08-28T13:41:17.527Z,100721.78
2022-08-28T13:43:46.958Z,100720.72
2022-08-28T13:46:15.294Z,100720.72
2022-08-28T13:48:43.663Z,100728.63
2022-08-28T13:51:19.291Z,100723.34
2022-08-28T13:53:49.859Z,100728.88
2022-08-28T13:56:21.915Z,100727.03
2022-08-28T13:58:58.101Z,100720.19
2022-08-28T14:01:58.874Z,100726.78
2022-08-28T14:04:27.498Z,100732.84
2022-08-28T14:06:57.450Z,100727.59
2022-08-28T14:09:27.203Z,100730.22
2022-08-28T14:11:55.943Z,100732.84
2022-08-28T14:14:24.280Z,100730.22
2022-08-28T14:16:53.788Z,100733.66
2022-08-28T14:19:22.779Z,100727.31
2022-08-28T14:21:51.363Z,100731.81
2022-08-28T14:24:21.077Z,100723.91
2022-08-28T14:26:53.040Z,100725.47
2022-08-28T14:29:22.118Z,100730.75
2022-08-28T14:31:50.443Z,100731.81
2022-08-28T14:34:20.458Z,100726.53
2022-08-28T14:36:50.979Z,100726.53
2022-08-28T14:39:20.699Z,100729.97
2022-08-28T14:41:51.731Z,100731.81
2022-08-28T14:44:20.404Z,100731.53
2022-08-28T14:46:50.407Z,100732.59
2022-08-28T14:49:19.077Z,100729.16
2022-08-28T14:51:47.758Z,100729.16
2022-08-28T14:54:17.396Z,100735.22
2022-08-28T14:56:47.753Z,100730.75
2022-08-28T14:59:20.682Z,100732.34
2022-08-28T15:01:52.837Z,100729.69
2022-08-28T15:04:23.673Z,100729.69
2022-08-28T15:06:52.667Z,100735.22
2022-08-28T15:09:21.021Z,100734.97
2022-08-28T15:11:50.728Z,100734.72
2022-08-28T15:14:19.104Z,100738.94
2022-08-28T15:16:49.254Z,100737.91
2022-08-28T15:19:18.307Z,100735.50
2022-08-28T15:21:47.903Z,100735.50
2022-08-28T15:24:16.986Z,100731.81
2022-08-28T15:26:45.548Z,100732.09
2022-08-28T15:29:15.360Z,100740.78
2022-08-28T15:31:45.689Z,100738.16
2022-08-28T15:34:15.470Z,100737.34
2022-08-28T15:36:45.285Z,100732.34
2022-08-28T15:39:40.996Z,100734.72
2022-08-28T15:42:10.048Z,100729.19
2022-08-28T15:44:39.932Z,100733.66
2022-08-28T15:47:08.655Z,100732.09
2022-08-28T15:49:43.553Z,100738.16
2022-08-28T15:52:15.797Z,100743.44
2022-08-28T15:54:44.453Z,100741.06
2022-08-28T15:57:12.769Z,100729.97
2022-08-28T15:59:50.023Z,100737.63
2022-08-28T16:02:19.625Z,100737.63
2022-08-28T16:04:48.058Z,100745.28
2022-08-28T16:07:16.842Z,100739.19
2022-08-28T16:09:45.109Z,100735.78
2022-08-28T16:12:13.395Z,100737.63
2022-08-28T16:14:43.322Z,100737.63
2022-08-28T16:17:12.016Z,100742.88
2022-08-28T16:19:40.370Z,100738.41
2022-08-28T16:22:08.769Z,100736.56
2022-08-28T16:24:37.043Z,100743.69
2022-08-28T16:27:06.190Z,100747.13
2022-08-28T16:29:36.776Z,100747.66
2022-08-28T16:32:07.038Z,100747.13
2022-08-28T16:34:36.968Z,100744.47
2022-08-28T16:37:05.842Z,100749.50
2022-08-28T16:39:36.686Z,100748.69
2022-08-28T16:42:05.327Z,100747.66
2022-08-28T16:44:35.049Z,100749.25
2022-08-28T16:47:03.458Z,100752.66
2022-08-28T16:49:33.099Z,100757.94
2022-08-28T16:52:01.464Z,100757.94
2022-08-28T16:54:29.751Z,100758.75
2022-08-28T16:56:58.120Z,100762.97
2022-08-28T16:59:26.474Z,100766.66
2022-08-28T17:01:54.939Z,100779.59
2022-08-28T17:04:23.369Z,100769.28
2022-08-28T17:06:53.145Z,100782.22
2022-08-28T17:09:23.955Z,100779.59
2022-08-28T17:11:52.486Z,100785.66
2022-08-28T17:14:21.071Z,100785.66
2022-08-28T17:16:49.606Z,100786.44
2022-08-28T17:19:18.206Z,100795.16
2022-08-28T17:22:04.091Z,100795.16
2022-08-28T17:24:33.827Z,100802.81
2022-08-28T17:27:05.633Z,100797.28
2022-08-28T17:29:34.819Z,100797.28
2022-08-28T17:32:03.210Z,100804.13
2022-08-28T17:34:31.546Z,100807.56
2022-08-28T17:37:00.630Z,100806.78
2022-08-28T17:39:28.857Z,100812.59
2022-08-28T17:42:36.599Z,100820.50
2022-08-28T17:45:05.186Z,100818.66
2022-08-28T17:47:33.591Z,100824.72
2022-08-28T17:50:01.906Z,100830.81
2022-08-28T17:52:30.965Z,100831.59
2022-08-28T17:54:59.433Z,100830.00
2022-08-28T17:57:30.541Z,100839.75
2022-08-28T18:00:01.188Z,100837.91
2022-08-28T18:02:40.518Z,100838.97
2022-08-28T18:05:09.710Z,100841.34
2022-08-28T18:07:38.499Z,100846.63
2022-08-28T18:10:07.545Z,100845.03
2022-08-28T18:12:36.010Z,100851.09
2022-08-28T18:15:06.310Z,100845.84
2022-08-28T18:18:01.282Z,100849.53
2022-08-28T18:20:29.587Z,100847.94
2022-08-28T18:22:58.120Z,100851.63
2022-08-28T18:25:50.930Z,100849.25
2022-08-28T18:28:22.437Z,100848.69
2022-08-28T18:30:53.944Z,100850.00
2022-08-28T18:33:23.518Z,100852.66
2022-08-28T18:35:52.426Z,100851.06
2022-08-28T18:38:21.933Z,100851.06
2022-08-28T18:40:51.256Z,100850.50
2022-08-28T18:43:21.350Z,100852.09
2022-08-28T18:45:49.934Z,100849.47
2022-08-28T18:48:19.896Z,100851.56
2022-08-28T18:50:48.622Z,100848.69
2022-08-28T18:53:18.375Z,100850.78
2022-08-28T18:55:47.011Z,100856.03
2022-08-28T18:58:19.489Z,100859.44
2022-08-28T19:00:47.912Z,100854.19
2022-08-28T19:03:16.386Z,100856.00
2022-08-28T19:05:46.028Z,100855.22
2022-08-28T19:08:15.256Z,100852.84
2022-08-28T19:10:43.880Z,100852.03
2022-08-28T19:13:12.293Z,100855.47
2022-08-28T19:15:40.731Z,100861.00
2022-08-28T19:18:09.086Z,100855.19
2022-08-28T19:20:37.673Z,100855.19
2022-08-28T19:23:07.347Z,100853.59
2022-08-28T19:25:35.945Z,100856.25
2022-08-28T19:28:04.700Z,100858.09
2022-08-28T19:30:34.756Z,100853.84
2022-08-28T19:33:12.708Z,100854.66
2022-08-28T19:35:41.148Z,100860.94
2022-08-28T19:38:11.108Z,100855.13
2022-08-28T19:40:40.095Z,100863.84
2022-08-28T19:43:09.653Z,100857.75
2022-08-28T19:45:42.857Z,100860.41
2022-08-28T19:48:12.214Z,100865.69
2022-08-28T19:50:41.159Z,100866.72
2022-08-28T19:53:10.861Z,100871.19
2022-08-28T19:55:39.263Z,100873.03
2022-08-28T19:58:08.498Z,100874.63
2022-08-28T20:00:37.011Z,100887.28
2022-08-28T20:03:05.421Z,100893.59
2022-08-28T20:05:33.913Z,100887.78
2022-08-28T20:08:06.641Z,100891.22
2022-08-28T20:10:38.876Z,100895.94
2022-08-28T20:13:07.261Z,100905.94
2022-08-28T20:15:35.553Z,100899.09
2022-08-28T20:18:03.897Z,100898.28
2022-08-28T20:20:32.283Z,100908.03
2022-08-28T20:23:00.647Z,100910.69
2022-08-28T20:25:31.289Z,100916.97
2022-08-28T20:28:01.768Z,100907.22
2022-08-28T20:30:30.311Z,100906.41
2022-08-28T20:32:58.660Z,100904.03
2022-08-28T20:35:27.560Z,100905.63
2022-08-28T20:37:56.018Z,100906.69
2022-08-28T20:40:24.547Z,100909.31
2022-08-28T20:42:53.005Z,100903.25
2022-08-28T20:45:23.135Z,100902.44
2022-08-28T20:47:51.413Z,100905.09
2022-08-28T20:50:19.850Z,100912.19
2022-08-28T20:52:48.227Z,100908.78
2022-08-28T20:55:16.505Z,100903.50
2022-08-28T20:57:44.810Z,100906.94
2022-08-28T21:00:14.082Z,100906.13
2022-08-28T21:02:43.811Z,100900.84
2022-08-28T21:05:12.138Z,100901.13
2022-08-28T21:08:00.865Z,100894.00
2022-08-28T21:10:29.136Z,100902.94
2022-08-28T21:12:57.409Z,100900.56
2022-08-28T21:15:25.674Z,100901.38
2022-08-28T21:17:55.374Z,100897.13
2022-08-28T21:20:24.012Z,100894.50
2022-08-28T21:22:53.970Z,100895.53
2022-08-28T21:25:24.647Z,100906.34
2022-08-28T21:27:53.444Z,100903.72
2022-08-28T21:30:22.432Z,100897.63
2022-08-28T21:32:51.157Z,100907.94
2022-08-28T21:35:20.995Z,100915.28
2022-08-28T21:37:50.025Z,100907.63
2022-08-28T21:40:18.606Z,100910.28
2022-08-28T21:42:46.973Z,100913.97
2022-08-28T21:45:15.826Z,100912.38
2022-08-28T21:47:44.530Z,100908.69
2022-08-28T21:50:12.784Z,100913.41
2022-08-28T21:52:42.572Z,100913.41
2022-08-28T21:55:11.719Z,100912.38
2022-08-28T21:57:40.172Z,100915.00
2022-08-28T22:00:10.196Z,100909.97
2022-08-28T22:02:39.028Z,100917.09
2022-08-28T22:05:07.496Z,100912.63
2022-08-28T22:07:36.294Z,100917.09
2022-08-28T22:10:06.467Z,100914.47
2022-08-28T22:12:36.618Z,100920.53
2022-08-28T22:15:06.306Z,100912.88
2022-08-28T22:17:34.662Z,100915.50
2022-08-28T22:20:03.111Z,100912.31
2022-08-28T22:22:49.064Z,100919.19
2022-08-28T22:25:18.756Z,100921.28
2022-08-28T22:27:47.236Z,100924.16
2022-08-28T22:30:15.693Z,100922.31
2022-08-28T22:32:45.408Z,100924.16
2022-08-28T22:35:13.713Z,100926.00
2022-08-28T22:37:42.025Z,100928.63
2022-08-28T22:40:13.564Z,100922.56
2022-08-28T22:42:43.694Z,100922.56
2022-08-28T22:45:12.176Z,100920.97
2022-08-28T22:47:40.735Z,100924.41
2022-08-28T22:50:09.438Z,100920.19
2022-08-28T22:52:38.428Z,100927.03
2022-08-28T22:55:10.644Z,100927.28
2022-08-28T22:57:41.097Z,100928.34
2022-08-28T23:00:12.499Z,100927.53
2022-08-28T23:02:41.040Z,100926.75
2022-08-28T23:05:09.778Z,100939.13
2022-08-28T23:07:38.302Z,100938.09
2022-08-28T23:10:09.643Z,100938.34
2022-08-28T23:12:39.037Z,100946.25
2022-08-28T23:15:08.856Z,100937.53
2022-08-28T23:17:38.776Z,100944.41
2022-08-28T23:20:10.773Z,100942.81
2022-08-28T23:22:39.299Z,100942.81
2022-08-28T23:25:09.069Z,100944.66
2022-08-28T23:27:38.497Z,100941.22
2022-08-28T23:30:08.105Z,100939.38
2022-08-28T23:32:36.374Z,100943.84
2022-08-28T23:35:07.544Z,100938.84
2022-08-28T23:37:36.829Z,100942.25
2022-08-28T23:40:06.746Z,100946.75
2022-08-28T23:42:38.744Z,100949.38
2022-08-28T23:45:07.646Z,100953.84
2022-08-28T23:47:40.975Z,100954.66
2022-08-28T23:50:12.580Z,100946.75
2022-08-28T23:52:40.984Z,100957.53
2022-08-28T23:55:11.928Z,100957.53
2022-08-28T23:57:40.468Z,100967.03
